createdAt,value
2018-08-24T00:02:18.977Z,92.00
2018-08-24T00:04:47.782Z,92.20
2018-08-24T00:07:16.562Z,92.10
2018-08-24T00:09:46.745Z,92.40
2018-08-24T00:12:15.512Z,92.70
2018-08-24T00:14:44.317Z,92.30
2018-08-24T00:17:18.549Z,92.70
2018-08-24T00:19:47.332Z,92.20
2018-08-24T00:22:16.029Z,92.30
2018-08-24T00:24:44.742Z,92.60
2018-08-24T00:27:13.481Z,92.70
2018-08-24T00:29:42.216Z,92.80
2018-08-24T00:32:11.114Z,93.10
2018-08-24T00:34:39.841Z,93.10
2018-08-24T00:37:08.628Z,93.60
2018-08-24T00:39:37.417Z,93.10
2018-08-24T00:42:06.288Z,92.80
2018-08-24T00:44:35.047Z,93.30
2018-08-24T00:47:03.737Z,93.90
2018-08-24T00:49:32.478Z,93.90
2018-08-24T00:52:01.320Z,93.70
2018-08-24T00:54:30.029Z,94.10
2018-08-24T00:56:59.000Z,93.70
2018-08-24T00:59:27.836Z,94.00
2018-08-24T01:01:56.545Z,94.10
2018-08-24T01:04:30.854Z,94.10
2018-08-24T01:06:59.629Z,94.20
2018-08-24T01:09:28.329Z,94.00
2018-08-24T01:12:02.480Z,94.10
2018-08-24T01:14:31.269Z,94.20
2018-08-24T01:17:05.527Z,93.90
2018-08-24T01:19:34.217Z,93.80
2018-08-24T01:22:02.942Z,93.90
2018-08-24T01:24:31.693Z,93.90
2018-08-24T01:27:02.954Z,94.40
2018-08-24T01:29:33.381Z,94.20
2018-08-24T01:32:02.182Z,94.30
2018-08-24T01:34:31.336Z,94.60
2018-08-24T01:37:00.156Z,94.30
2018-08-24T01:39:29.164Z,94.80
2018-08-24T01:41:58.045Z,95.00
2018-08-24T01:44:27.314Z,95.20
2018-08-24T01:46:56.055Z,95.10
2018-08-24T01:49:24.837Z,95.40
2018-08-24T01:51:53.861Z,95.80
2018-08-24T01:54:22.705Z,95.30
2018-08-24T01:56:51.470Z,95.10
2018-08-24T01:59:20.342Z,95.10
2018-08-24T02:01:49.090Z,94.80
2018-08-24T02:04:17.889Z,94.90
2018-08-24T02:06:46.662Z,95.00
2018-08-24T02:09:15.473Z,94.90
2018-08-24T02:11:44.218Z,94.90
2018-08-24T02:14:18.342Z,94.90
2018-08-24T02:16:53.046Z,94.70
2018-08-24T02:19:27.198Z,94.80
2018-08-24T02:22:01.540Z,94.30
2018-08-24T02:24:30.345Z,94.60
2018-08-24T02:26:59.172Z,94.10
2018-08-24T02:29:27.877Z,94.50
2018-08-24T02:31:56.616Z,94.50
2018-08-24T02:34:25.465Z,94.60
2018-08-24T02:36:54.341Z,94.40
2018-08-24T02:39:23.117Z,94.70
2018-08-24T02:41:51.989Z,94.80
2018-08-24T02:44:20.817Z,94.90
2018-08-24T02:46:49.610Z,94.80
2018-08-24T02:49:26.149Z,95.10
2018-08-24T02:51:55.029Z,95.30
2018-08-24T02:54:23.817Z,95.40
2018-08-24T02:56:52.652Z,95.50
2018-08-24T02:59:21.382Z,95.50
2018-08-24T03:01:50.145Z,95.40
2018-08-24T03:04:18.901Z,95.40
2018-08-24T03:06:47.737Z,95.30
2018-08-24T03:09:16.566Z,95.30
2018-08-24T03:11:45.277Z,95.20
2018-08-24T03:14:14.180Z,95.40
2018-08-24T03:16:47.121Z,95.60
2018-08-24T03:19:16.018Z,95.60
2018-08-24T03:21:44.742Z,95.70
2018-08-24T03:24:13.580Z,95.80
2018-08-24T03:26:42.306Z,95.80
2018-08-24T03:29:11.197Z,95.80
2018-08-24T03:31:40.075Z,95.80
2018-08-24T03:34:08.721Z,95.80
2018-08-24T03:36:37.538Z,95.80
2018-08-24T03:39:07.687Z,95.70
2018-08-24T03:41:36.670Z,95.90
2018-08-24T03:44:05.754Z,95.80
2018-08-24T03:46:34.481Z,95.80
2018-08-24T03:49:03.405Z,96.00
2018-08-24T03:51:32.081Z,95.90
2018-08-24T03:54:03.554Z,96.00
2018-08-24T03:56:32.523Z,96.10
2018-08-24T03:59:01.334Z,96.20
2018-08-24T04:01:30.590Z,96.30
2018-08-24T04:03:59.441Z,96.40
2018-08-24T04:06:28.261Z,96.40
2018-08-24T04:08:56.950Z,96.50
2018-08-24T04:11:25.723Z,96.40
2018-08-24T04:13:54.569Z,96.50
2018-08-24T04:16:23.257Z,96.60
2018-08-24T04:18:52.116Z,96.60
2018-08-24T04:21:20.984Z,96.50
2018-08-24T04:23:49.845Z,96.70
2018-08-24T04:26:18.698Z,96.60
2018-08-24T04:28:47.485Z,96.70
2018-08-24T04:31:16.253Z,96.70
2018-08-24T04:33:44.957Z,96.50
2018-08-24T04:36:13.929Z,96.70
2018-08-24T04:38:42.693Z,96.90
2018-08-24T04:41:11.543Z,97.00
2018-08-24T04:43:40.250Z,97.10
2018-08-24T04:46:08.961Z,97.00
2018-08-24T04:48:37.677Z,97.20
2018-08-24T04:51:06.445Z,97.20
2018-08-24T04:53:35.161Z,97.20
2018-08-24T04:56:03.940Z,97.30
2018-08-24T04:58:32.653Z,97.10
2018-08-24T05:01:01.367Z,97.30
2018-08-24T05:03:30.233Z,97.20
2018-08-24T05:05:59.042Z,97.20
2018-08-24T05:08:27.910Z,97.10
2018-08-24T05:10:56.801Z,97.10
2018-08-24T05:13:25.797Z,96.80
2018-08-24T05:15:54.581Z,97.20
2018-08-24T05:18:23.361Z,97.20
2018-08-24T05:20:52.347Z,97.10
2018-08-24T05:23:21.042Z,97.20
2018-08-24T05:25:50.182Z,97.60
2018-08-24T05:28:25.978Z,97.60
2018-08-24T05:30:54.697Z,97.50
2018-08-24T05:33:23.463Z,97.90
2018-08-24T05:35:52.350Z,98.60
2018-08-24T05:38:21.317Z,98.20
2018-08-24T05:40:50.202Z,98.30
2018-08-24T05:43:18.918Z,98.70
2018-08-24T05:45:47.861Z,98.70
2018-08-24T05:48:16.653Z,99.00
2018-08-24T05:50:45.376Z,99.10
2018-08-24T05:53:14.160Z,99.20
2018-08-24T05:55:43.013Z,99.40
2018-08-24T05:58:11.866Z,99.60
2018-08-24T06:00:42.030Z,99.60
2018-08-24T06:03:10.861Z,99.20
2018-08-24T06:05:45.041Z,99.60
2018-08-24T06:08:13.705Z,99.90
2018-08-24T06:10:42.497Z,99.90
2018-08-24T06:13:15.703Z,99.90
2018-08-24T06:15:45.412Z,99.90
2018-08-24T06:18:21.684Z,99.90
2018-08-24T06:20:50.563Z,99.90
2018-08-24T06:23:19.410Z,99.00
2018-08-24T06:25:59.875Z,99.00
2018-08-24T06:28:32.249Z,98.70
2018-08-24T06:31:03.094Z,98.20
2018-08-24T06:33:39.454Z,98.20
2018-08-24T06:36:13.261Z,98.10
2018-08-24T06:38:42.062Z,97.80
2018-08-24T06:41:10.849Z,97.30
2018-08-24T06:43:46.364Z,96.90
2018-08-24T06:46:15.149Z,96.60
2018-08-24T06:48:44.002Z,96.40
2018-08-24T06:51:16.242Z,96.00
2018-08-24T06:53:45.211Z,95.40
2018-08-24T06:56:17.165Z,95.20
2018-08-24T06:58:47.113Z,95.50
2018-08-24T07:01:16.080Z,95.70
2018-08-24T07:03:45.224Z,94.30
2018-08-24T07:06:14.101Z,93.80
2018-08-24T07:08:42.933Z,93.70
2018-08-24T07:16:02.086Z,93.60
2018-08-24T07:18:37.046Z,93.60
2018-08-24T07:21:06.012Z,93.10
2018-08-24T07:23:35.618Z,92.70
2018-08-24T07:26:05.561Z,92.50
2018-08-24T07:28:34.282Z,92.20
2018-08-24T07:31:02.953Z,92.10
2018-08-24T07:33:33.775Z,92.00
2018-08-24T07:36:02.501Z,91.80
2018-08-24T07:38:34.373Z,92.20
2018-08-24T07:41:03.090Z,91.60
2018-08-24T07:43:31.896Z,92.00
2018-08-24T07:46:00.717Z,91.90
2018-08-24T07:48:29.413Z,91.50
2018-08-24T07:50:58.320Z,90.30
2018-08-24T07:53:27.073Z,89.40
2018-08-24T07:55:55.853Z,90.00
2018-08-24T07:58:24.910Z,90.00
2018-08-24T08:00:53.604Z,89.90
2018-08-24T08:03:36.498Z,90.30
2018-08-24T08:06:12.039Z,90.30
2018-08-24T08:08:59.022Z,89.80
2018-08-24T08:11:45.147Z,89.20
2018-08-24T08:14:21.427Z,89.70
2018-08-24T08:17:05.501Z,89.80
2018-08-24T08:22:27.802Z,88.90
2018-08-24T08:24:56.606Z,89.40
2018-08-24T08:27:25.344Z,89.40
2018-08-24T08:30:03.556Z,89.00
2018-08-24T08:32:32.997Z,89.20
2018-08-24T08:35:05.849Z,89.50
2018-08-24T08:37:34.681Z,89.60
2018-08-24T08:40:06.715Z,89.60
2018-08-24T08:42:35.438Z,89.10
2018-08-24T08:45:04.364Z,90.40
2018-08-24T08:47:39.466Z,90.40
2018-08-24T08:50:08.402Z,90.00
2018-08-24T08:52:37.084Z,90.50
2018-08-24T08:55:05.890Z,90.60
2018-08-24T08:57:34.642Z,91.30
2018-08-24T09:00:03.536Z,90.50
2018-08-24T09:02:37.477Z,90.90
2018-08-24T09:05:06.501Z,90.80
2018-08-24T09:07:35.330Z,90.80
2018-08-24T09:10:04.162Z,90.50
2018-08-24T09:12:32.867Z,89.70
2018-08-24T09:15:01.539Z,90.00
2018-08-24T09:17:35.549Z,88.10
2018-08-24T09:20:09.785Z,88.80
2018-08-24T09:22:44.094Z,88.10
2018-08-24T09:25:18.436Z,89.80
2018-08-24T09:27:52.390Z,91.40
2018-08-24T09:30:24.316Z,91.60
2018-08-24T09:32:53.237Z,91.40
2018-08-24T09:35:22.161Z,92.40
2018-08-24T09:37:50.948Z,94.00
2018-08-24T09:40:32.809Z,93.70
2018-08-24T09:43:05.834Z,93.70
2018-08-24T09:45:34.550Z,92.70
2018-08-24T09:48:08.519Z,93.10
2018-08-24T09:50:42.621Z,93.50
2018-08-24T09:53:16.895Z,93.70
2018-08-24T09:55:45.775Z,94.10
2018-08-24T09:58:14.604Z,94.40
2018-08-24T10:00:55.483Z,94.80
2018-08-24T10:03:29.682Z,94.70
2018-08-24T10:06:03.921Z,95.50
2018-08-24T10:08:38.503Z,95.80
2018-08-24T10:11:07.346Z,95.00
2018-08-24T10:13:36.398Z,95.00
2018-08-24T10:16:05.169Z,95.70
2018-08-24T10:18:34.022Z,95.70
2018-08-24T10:21:03.002Z,95.60
2018-08-24T10:23:31.762Z,95.60
2018-08-24T10:26:00.557Z,95.70
2018-08-24T10:28:29.937Z,95.10
2018-08-24T10:31:12.643Z,95.30
2018-08-24T10:33:41.403Z,95.20
2018-08-24T10:36:10.536Z,95.40
2018-08-24T10:38:44.951Z,96.30
2018-08-24T10:41:14.790Z,97.60
2018-08-24T10:43:43.549Z,97.00
2018-08-24T10:46:12.245Z,96.90
2018-08-24T10:48:41.065Z,96.10
2018-08-24T10:51:09.834Z,96.20
2018-08-24T10:53:38.732Z,95.20
2018-08-24T10:56:07.611Z,95.40
2018-08-24T10:58:36.350Z,96.10
2018-08-24T11:01:05.071Z,95.50
2018-08-24T11:03:38.885Z,95.40
2018-08-24T11:06:07.719Z,94.90
2018-08-24T11:08:42.724Z,95.20
2018-08-24T11:11:11.530Z,94.80
2018-08-24T11:13:40.269Z,95.90
2018-08-24T11:16:08.997Z,95.10
2018-08-24T11:18:37.944Z,96.20
2018-08-24T11:21:06.910Z,95.00
2018-08-24T11:23:35.729Z,94.00
2018-08-24T11:26:04.971Z,92.90
2018-08-24T11:28:33.731Z,93.60
2018-08-24T11:31:02.550Z,92.70
2018-08-24T11:33:31.541Z,92.60
2018-08-24T11:36:00.368Z,92.10
2018-08-24T11:38:29.080Z,91.50
2018-08-24T11:40:57.927Z,92.00
2018-08-24T11:43:26.760Z,92.20
2018-08-24T11:45:55.758Z,90.90
2018-08-24T11:48:26.991Z,91.50
2018-08-24T11:50:56.495Z,92.00
2018-08-24T11:53:25.417Z,90.70
2018-08-24T11:55:54.387Z,90.80
2018-08-24T11:58:23.209Z,88.60
2018-08-24T12:00:54.177Z,89.80
2018-08-24T12:03:22.884Z,88.20
2018-08-24T12:05:55.761Z,88.10
2018-08-24T12:08:25.003Z,88.30
2018-08-24T12:11:00.297Z,88.10
2018-08-24T12:13:29.019Z,90.00
2018-08-24T12:16:06.974Z,89.80
2018-08-24T12:18:35.813Z,86.50
2018-08-24T12:21:04.652Z,86.00
2018-08-24T12:23:33.455Z,85.70
2018-08-24T12:26:02.379Z,86.10
2018-08-24T12:28:31.104Z,85.90
2018-08-24T12:30:59.880Z,83.60
2018-08-24T12:33:28.813Z,86.40
2018-08-24T12:35:57.555Z,84.60
2018-08-24T12:38:26.420Z,83.50
2018-08-24T12:41:01.935Z,83.00
2018-08-24T12:43:38.501Z,83.10
2018-08-24T12:46:07.969Z,83.90
2018-08-24T12:48:43.317Z,83.00
2018-08-24T12:51:12.170Z,80.80
2018-08-24T12:53:55.662Z,83.00
2018-08-24T12:56:24.382Z,82.00
2018-08-24T12:58:53.451Z,83.90
2018-08-24T13:01:26.388Z,82.40
2018-08-24T13:03:55.265Z,82.70
2018-08-24T13:06:24.009Z,82.90
2018-08-24T13:08:53.924Z,84.10
2018-08-24T13:11:22.782Z,83.10
2018-08-24T13:13:51.499Z,83.20
2018-08-24T13:16:20.278Z,85.10
2018-08-24T13:18:48.950Z,84.20
2018-08-24T13:21:17.872Z,84.70
2018-08-24T13:23:46.785Z,84.90
2018-08-24T13:26:15.629Z,85.00
2018-08-24T13:28:44.406Z,85.10
2018-08-24T13:31:13.194Z,85.00
2018-08-24T13:33:42.053Z,84.90
2018-08-24T13:36:10.820Z,85.50
2018-08-24T13:38:39.627Z,85.00
2018-08-24T13:41:08.474Z,84.80
2018-08-24T13:43:37.153Z,83.40
2018-08-24T13:46:05.938Z,83.30
2018-08-24T13:48:34.673Z,83.80
2018-08-24T13:51:03.442Z,83.50
2018-08-24T13:53:32.427Z,83.40
2018-08-24T13:56:01.217Z,83.00
2018-08-24T13:58:30.074Z,83.30
2018-08-24T14:00:58.825Z,82.00
2018-08-24T14:03:27.630Z,82.20
2018-08-24T14:05:56.522Z,81.60
2018-08-24T14:08:33.994Z,82.50
2018-08-24T14:11:02.713Z,82.00
2018-08-24T14:13:31.548Z,79.40
2018-08-24T14:16:00.292Z,73.70
2018-08-24T14:18:29.140Z,73.20
2018-08-24T14:20:58.943Z,71.20
2018-08-24T14:23:27.861Z,71.10
2018-08-24T14:25:56.736Z,73.50
2018-08-24T14:28:25.508Z,75.40
2018-08-24T14:30:54.249Z,76.40
2018-08-24T14:33:22.949Z,76.40
2018-08-24T14:35:51.797Z,77.00
2018-08-24T14:38:20.775Z,76.00
2018-08-24T14:40:49.546Z,75.70
2018-08-24T14:43:18.372Z,74.90
2018-08-24T14:45:47.060Z,75.60
2018-08-24T14:48:16.071Z,74.60
2018-08-24T14:50:45.302Z,74.00
2018-08-24T14:53:14.560Z,73.40
2018-08-24T14:55:43.845Z,73.60
2018-08-24T14:58:13.141Z,72.90
2018-08-24T15:00:42.218Z,72.30
2018-08-24T15:03:11.495Z,70.50
2018-08-24T15:05:40.365Z,67.90
2018-08-24T15:08:09.421Z,59.90
2018-08-24T15:10:38.069Z,59.70
2018-08-24T15:13:06.882Z,60.20
2018-08-24T15:15:41.719Z,61.10
2018-08-24T15:18:10.453Z,57.80
2018-08-24T15:20:39.557Z,57.20
2018-08-24T15:23:08.320Z,57.10
2018-08-24T15:25:37.082Z,57.00
2018-08-24T15:28:05.789Z,57.50
2018-08-24T15:30:34.629Z,57.80
2018-08-24T15:33:03.293Z,58.20
2018-08-24T15:35:32.053Z,58.80
2018-08-24T15:38:00.901Z,59.20
2018-08-24T15:40:29.990Z,59.30
2018-08-24T15:42:59.814Z,59.20
2018-08-24T15:45:28.874Z,59.40
2018-08-24T15:47:57.881Z,60.10
2018-08-24T15:50:26.631Z,60.00
2018-08-24T15:52:55.450Z,60.90
2018-08-24T15:55:25.533Z,61.30
2018-08-24T15:57:54.336Z,61.40
2018-08-24T16:00:23.077Z,61.10
2018-08-24T16:02:51.873Z,61.90
2018-08-24T16:05:20.755Z,61.40
2018-08-24T16:07:49.757Z,62.10
2018-08-24T16:10:18.436Z,61.40
2018-08-24T16:13:04.838Z,61.90
2018-08-24T16:15:33.614Z,62.30
2018-08-24T16:18:07.744Z,62.00
2018-08-24T16:20:36.493Z,62.60
2018-08-24T16:23:05.534Z,61.60
2018-08-24T16:25:34.411Z,61.80
2018-08-24T16:28:12.078Z,61.40
2018-08-24T16:30:40.813Z,61.00
2018-08-24T16:33:09.717Z,61.30
2018-08-24T16:35:38.558Z,61.40
2018-08-24T16:38:07.317Z,60.50
2018-08-24T16:40:42.534Z,60.90
2018-08-24T16:43:11.364Z,60.60
2018-08-24T16:45:40.085Z,60.80
2018-08-24T16:48:08.891Z,60.20
2018-08-24T16:50:37.596Z,59.90
2018-08-24T16:53:06.457Z,60.10
2018-08-24T16:55:35.241Z,60.10
2018-08-24T16:58:04.063Z,60.30
2018-08-24T17:00:37.742Z,60.30
2018-08-24T17:03:06.794Z,60.70
2018-08-24T17:05:35.605Z,60.10
2018-08-24T17:08:05.694Z,60.20
2018-08-24T17:10:34.745Z,60.40
2018-08-24T17:13:03.542Z,60.70
2018-08-24T17:15:36.405Z,60.70
2018-08-24T17:18:05.446Z,60.70
2018-08-24T17:20:34.474Z,61.10
2018-08-24T17:23:03.343Z,61.80
2018-08-24T17:25:34.150Z,61.40
2018-08-24T17:28:02.941Z,61.70
2018-08-24T17:30:31.811Z,62.20
2018-08-24T17:33:00.738Z,62.60
2018-08-24T17:35:38.633Z,62.00
2018-08-24T17:38:07.486Z,61.30
2018-08-24T17:40:36.171Z,61.20
2018-08-24T17:43:05.354Z,59.30
2018-08-24T17:45:34.054Z,59.20
2018-08-24T17:48:02.789Z,59.10
2018-08-24T17:50:31.616Z,59.20
2018-08-24T17:53:00.370Z,60.00
2018-08-24T17:55:29.493Z,59.50
2018-08-24T17:58:00.393Z,59.90
2018-08-24T18:00:29.139Z,59.10
2018-08-24T18:02:57.961Z,59.70
2018-08-24T18:05:26.774Z,60.40
2018-08-24T18:07:55.795Z,60.30
2018-08-24T18:10:24.601Z,60.80
2018-08-24T18:12:53.449Z,60.70
2018-08-24T18:15:22.530Z,61.00
2018-08-24T18:17:51.354Z,61.30
2018-08-24T18:20:27.823Z,62.10
2018-08-24T18:22:56.542Z,62.10
2018-08-24T18:25:25.270Z,62.50
2018-08-24T18:27:54.069Z,61.70
2018-08-24T18:30:22.755Z,62.40
2018-08-24T18:32:51.463Z,62.60
2018-08-24T18:35:20.427Z,62.50
2018-08-24T18:37:55.896Z,63.50
2018-08-24T18:40:24.797Z,62.90
2018-08-24T18:42:53.690Z,62.90
2018-08-24T18:45:22.456Z,62.60
2018-08-24T18:47:51.278Z,62.40
2018-08-24T18:50:20.070Z,62.30
2018-08-24T18:52:48.791Z,60.70
2018-08-24T18:55:17.666Z,60.50
2018-08-24T18:57:46.549Z,60.60
2018-08-24T19:00:15.330Z,60.80
2018-08-24T19:02:44.313Z,60.30
2018-08-24T19:05:13.336Z,60.20
2018-08-24T19:07:42.245Z,60.30
2018-08-24T19:10:11.060Z,60.00
2018-08-24T19:12:39.837Z,59.60
2018-08-24T19:15:10.025Z,59.00
2018-08-24T19:17:44.281Z,58.60
2018-08-24T19:20:18.542Z,58.60
2018-08-24T19:22:50.137Z,57.90
2018-08-24T19:25:19.425Z,58.10
2018-08-24T19:27:55.861Z,58.00
2018-08-24T19:30:29.904Z,58.10
2018-08-24T19:32:58.693Z,58.40
2018-08-24T19:35:27.434Z,58.00
2018-08-24T19:37:56.252Z,57.60
2018-08-24T19:40:30.424Z,58.20
2018-08-24T19:43:19.456Z,57.90
2018-08-24T19:45:48.213Z,57.80
2018-08-24T19:48:22.235Z,57.80
2018-08-24T19:50:50.886Z,58.10
2018-08-24T19:53:19.681Z,57.80
2018-08-24T19:55:48.405Z,57.80
2018-08-24T19:58:22.577Z,57.50
2018-08-24T20:00:51.385Z,57.50
2018-08-24T20:03:20.066Z,56.90
2018-08-24T20:05:54.161Z,57.50
2018-08-24T20:08:28.136Z,57.40
2018-08-24T20:10:56.933Z,57.90
2018-08-24T20:13:25.723Z,57.50
2018-08-24T20:15:59.874Z,57.20
2018-08-24T20:18:28.923Z,57.50
2018-08-24T20:20:57.725Z,56.90
2018-08-24T20:23:26.449Z,56.70
2018-08-24T20:25:55.165Z,56.50
2018-08-24T20:28:23.900Z,56.60
2018-08-24T20:30:52.647Z,57.00
2018-08-24T20:33:21.637Z,56.30
2018-08-24T20:35:50.341Z,56.40
2018-08-24T20:38:31.584Z,57.40
2018-08-24T20:41:00.302Z,56.70
2018-08-24T20:43:29.200Z,57.50
2018-08-24T20:45:58.085Z,57.40
2018-08-24T20:48:26.875Z,57.30
2018-08-24T20:50:55.637Z,57.60
2018-08-24T20:53:24.376Z,57.80
2018-08-24T20:55:53.189Z,58.10
2018-08-24T20:58:21.948Z,58.30
2018-08-24T21:00:50.962Z,57.80
2018-08-24T21:03:19.741Z,58.20
2018-08-24T21:05:48.709Z,58.40
2018-08-24T21:08:17.417Z,58.60
2018-08-24T21:10:46.309Z,58.80
2018-08-24T21:13:15.062Z,58.80
2018-08-24T21:15:43.745Z,59.10
2018-08-24T21:18:12.550Z,59.00
2018-08-24T21:20:41.350Z,59.00
2018-08-24T21:23:10.130Z,58.30
2018-08-24T21:25:38.889Z,57.90
2018-08-24T21:28:07.650Z,58.20
2018-08-24T21:30:36.381Z,57.60
2018-08-24T21:33:05.555Z,57.60
2018-08-24T21:35:34.394Z,57.70
2018-08-24T21:38:03.109Z,57.60
2018-08-24T21:40:31.837Z,57.60
2018-08-24T21:43:00.596Z,57.30
2018-08-24T21:45:29.408Z,57.70
2018-08-24T21:47:58.233Z,57.70
2018-08-24T21:50:36.874Z,58.10
2018-08-24T21:53:05.685Z,58.50
2018-08-24T21:55:34.497Z,58.30
2018-08-24T21:58:03.448Z,58.50
2018-08-24T22:00:36.483Z,58.20
2018-08-24T22:03:05.290Z,58.30
2018-08-24T22:05:34.254Z,58.70
2018-08-24T22:08:02.937Z,58.90
2018-08-24T22:10:31.601Z,59.00
2018-08-24T22:13:00.454Z,59.40
2018-08-24T22:15:29.509Z,59.50
2018-08-24T22:17:58.206Z,59.10
2018-08-24T22:20:33.539Z,59.60
2018-08-24T22:23:02.299Z,59.60
2018-08-24T22:25:31.069Z,59.70
2018-08-24T22:27:59.865Z,61.60
2018-08-24T22:30:28.689Z,60.30
2018-08-24T22:32:57.433Z,60.50
2018-08-24T22:35:26.305Z,61.10
2018-08-24T22:37:55.085Z,62.40
2018-08-24T22:40:23.905Z,62.70
2018-08-24T22:42:52.609Z,62.80
2018-08-24T22:45:23.600Z,63.90
2018-08-24T22:47:53.097Z,64.30
2018-08-24T22:50:21.880Z,64.50
2018-08-24T22:52:50.694Z,64.00
2018-08-24T22:55:19.340Z,64.50
2018-08-24T22:57:48.189Z,64.70
2018-08-24T23:00:17.074Z,65.00
2018-08-24T23:02:45.802Z,66.20
2018-08-24T23:05:14.573Z,65.60
2018-08-24T23:07:43.273Z,65.60
2018-08-24T23:10:14.192Z,66.00
2018-08-24T23:12:42.982Z,66.20
2018-08-24T23:15:11.776Z,66.30
2018-08-24T23:17:40.676Z,66.20
2018-08-24T23:20:09.365Z,66.00
2018-08-24T23:22:38.256Z,66.00
2018-08-24T23:25:07.147Z,65.30
2018-08-24T23:27:35.940Z,65.40
2018-08-24T23:30:04.741Z,65.50
2018-08-24T23:32:33.565Z,65.70
2018-08-24T23:35:03.385Z,65.10
2018-08-24T23:37:32.139Z,65.60
2018-08-24T23:40:01.148Z,66.60
2018-08-24T23:42:29.882Z,66.50
2018-08-24T23:44:58.687Z,66.90
2018-08-24T23:47:27.445Z,66.60
2018-08-24T23:49:56.213Z,66.50
2018-08-24T23:52:25.069Z,64.80
2018-08-24T23:54:53.849Z,65.20
2018-08-24T23:57:22.702Z,67.30
2018-08-24T23:59:51.406Z,66.50
